KGWO/GWO METAR and TAF weather

Enter ICAO airport designator
Station Type Date Time Source
KGWO METAR 2019/08/25 18:12 UTC NOAA

KGWO 251812Z AUTO 09004KT 10SM VCTS SCT017 OVC090 29/24 A2991 RMK AO2 LTG DSNT N AND SE AND S T02890244


Station Type Date Time Source
KGWO Decoded METAR 2019/08/25 18:12 UTC NOAA

Station name not available
Aug 25, 2019 - 02:12 PM EDT / 2019.08.25 1812 UTC
Wind: from the E (090 degrees) at 5 MPH (4 KT):0
Visibility: 10 mile(s):0
Sky conditions: overcast
Weather: thunder in the vicinity; Lightning observed
Temperature: 84.0 F (28.9 C)
Dew Point: 75.9 F (24.4 C)
Relative Humidity: 76%
Pressure (altimeter): 29.91 in. Hg (1012 hPa)
ob: KGWO 251812Z AUTO 09004KT 10SM VCTS SCT017 OVC090 29/24 A2991 RMK AO2 LTG DSNT N AND SE AND S T02890244
cycle: 18

Station Type Date Time Source
KGWO TAF 2019/08/25 18:48 UTC NOAA

TAF KGWO 251746Z 2518/2618 12005KT P6SM SHRA VCTS BKN015CB OVC050
FM251930 12008KT P6SM SHRA FEW020 BKN050
FM260700 16004KT P6SM VCSH BKN008 OVC025
FM261500 18005KT P6SM FEW008 BKN025

Example: see airport list